sensor_id;sensor_type;location;lat;lon;timestamp;pressure;altitude;pressure_sealevel;temperature;humidity
70544;BME280;58097;48.364;-1.224;2022-12-18T00:00:54;100094.63;;;-2.46;77.90
70544;BME280;58097;48.364;-1.224;2022-12-18T00:03:20;100095.50;;;-2.46;77.74
70544;BME280;58097;48.364;-1.224;2022-12-18T00:05:54;100086.34;;;-2.43;78.10
70544;BME280;58097;48.364;-1.224;2022-12-18T00:08:19;100095.41;;;-2.44;77.74
70544;BME280;58097;48.364;-1.224;2022-12-18T00:10:45;100103.53;;;-2.44;77.79
70544;BME280;58097;48.364;-1.224;2022-12-18T00:13:11;100096.75;;;-2.53;78.38
70544;BME280;58097;48.364;-1.224;2022-12-18T00:15:39;100090.38;;;-2.52;78.42
70544;BME280;58097;48.364;-1.224;2022-12-18T00:18:05;100087.53;;;-2.49;78.24
70544;BME280;58097;48.364;-1.224;2022-12-18T00:20:31;100095.31;;;-2.60;79.00
70544;BME280;58097;48.364;-1.224;2022-12-18T00:23:00;100091.56;;;-2.58;78.74
70544;BME280;58097;48.364;-1.224;2022-12-18T00:25:25;100085.06;;;-2.54;78.67
70544;BME280;58097;48.364;-1.224;2022-12-18T00:27:50;100095.34;;;-2.62;78.86
70544;BME280;58097;48.364;-1.224;2022-12-18T00:30:16;100085.47;;;-2.63;79.13
70544;BME280;58097;48.364;-1.224;2022-12-18T00:32:41;100086.56;;;-2.67;79.49
70544;BME280;58097;48.364;-1.224;2022-12-18T00:35:07;100084.41;;;-2.77;79.76
70544;BME280;58097;48.364;-1.224;2022-12-18T00:37:35;100083.75;;;-2.83;80.26
70544;BME280;58097;48.364;-1.224;2022-12-18T00:40:02;100081.47;;;-2.73;79.49
70544;BME280;58097;48.364;-1.224;2022-12-18T00:42:27;100078.53;;;-2.68;79.41
70544;BME280;58097;48.364;-1.224;2022-12-18T00:45:11;100074.22;;;-2.72;79.90
70544;BME280;58097;48.364;-1.224;2022-12-18T00:47:36;100070.72;;;-2.74;80.00
70544;BME280;58097;48.364;-1.224;2022-12-18T00:50:02;100074.22;;;-2.72;80.16
70544;BME280;58097;48.364;-1.224;2022-12-18T00:52:27;100080.53;;;-2.72;80.18
70544;BME280;58097;48.364;-1.224;2022-12-18T00:54:53;100070.56;;;-2.71;80.08
70544;BME280;58097;48.364;-1.224;2022-12-18T00:57:18;100076.38;;;-2.79;80.73
70544;BME280;58097;48.364;-1.224;2022-12-18T00:59:43;100071.75;;;-2.77;80.11
70544;BME280;58097;48.364;-1.224;2022-12-18T01:02:09;100077.88;;;-2.73;80.18
70544;BME280;58097;48.364;-1.224;2022-12-18T01:04:34;100070.66;;;-2.73;80.01
70544;BME280;58097;48.364;-1.224;2022-12-18T01:07:00;100069.78;;;-2.73;80.52
70544;BME280;58097;48.364;-1.224;2022-12-18T01:09:25;100071.38;;;-2.69;80.09
70544;BME280;58097;48.364;-1.224;2022-12-18T01:11:51;100064.38;;;-2.73;80.17
70544;BME280;58097;48.364;-1.224;2022-12-18T01:14:16;100068.31;;;-2.81;80.81
70544;BME280;58097;48.364;-1.224;2022-12-18T01:16:42;100066.41;;;-2.78;80.59
70544;BME280;58097;48.364;-1.224;2022-12-18T01:19:07;100059.03;;;-2.75;80.31
70544;BME280;58097;48.364;-1.224;2022-12-18T01:21:32;100069.47;;;-2.67;79.76
70544;BME280;58097;48.364;-1.224;2022-12-18T01:23:58;100078.03;;;-2.76;80.65
70544;BME280;58097;48.364;-1.224;2022-12-18T01:26:24;100089.66;;;-2.74;80.51
70544;BME280;58097;48.364;-1.224;2022-12-18T01:28:50;100083.16;;;-2.70;80.32
70544;BME280;58097;48.364;-1.224;2022-12-18T01:33:41;100070.56;;;-2.71;80.47
70544;BME280;58097;48.364;-1.224;2022-12-18T01:36:07;100065.16;;;-2.71;80.29
70544;BME280;58097;48.364;-1.224;2022-12-18T01:38:32;100057.44;;;-2.79;80.66
70544;BME280;58097;48.364;-1.224;2022-12-18T01:40:58;100058.31;;;-2.78;80.53
70544;BME280;58097;48.364;-1.224;2022-12-18T01:43:45;100048.66;;;-2.84;80.97
70544;BME280;58097;48.364;-1.224;2022-12-18T01:46:12;100056.31;;;-2.75;80.61
70544;BME280;58097;48.364;-1.224;2022-12-18T01:48:39;100047.09;;;-2.71;80.48
70544;BME280;58097;48.364;-1.224;2022-12-18T01:51:06;100042.00;;;-2.77;81.02
70544;BME280;58097;48.364;-1.224;2022-12-18T01:53:32;100041.03;;;-2.76;80.88
70544;BME280;58097;48.364;-1.224;2022-12-18T01:55:58;100034.75;;;-2.76;80.62
70544;BME280;58097;48.364;-1.224;2022-12-18T01:58:32;100027.44;;;-2.74;80.64
70544;BME280;58097;48.364;-1.224;2022-12-18T02:01:00;100030.53;;;-2.82;80.97
70544;BME280;58097;48.364;-1.224;2022-12-18T02:03:26;100028.41;;;-2.75;80.75
70544;BME280;58097;48.364;-1.224;2022-12-18T02:16:47;100036.16;;;-2.87;81.43
70544;BME280;58097;48.364;-1.224;2022-12-18T02:22:14;100041.34;;;-2.82;81.49
70544;BME280;58097;48.364;-1.224;2022-12-18T02:25:10;100050.41;;;-2.83;81.52
70544;BME280;58097;48.364;-1.224;2022-12-18T02:27:40;100045.16;;;-2.86;81.55
70544;BME280;58097;48.364;-1.224;2022-12-18T02:30:08;100051.28;;;-2.83;81.04
70544;BME280;58097;48.364;-1.224;2022-12-18T02:32:50;100047.00;;;-2.87;81.54
70544;BME280;58097;48.364;-1.224;2022-12-18T02:35:27;100047.78;;;-2.85;81.68
70544;BME280;58097;48.364;-1.224;2022-12-18T02:37:55;100048.50;;;-2.81;81.45
70544;BME280;58097;48.364;-1.224;2022-12-18T02:40:23;100041.34;;;-2.82;81.45
70544;BME280;58097;48.364;-1.224;2022-12-18T02:42:49;100029.44;;;-2.78;81.37
70544;BME280;58097;48.364;-1.224;2022-12-18T02:45:15;100031.97;;;-2.75;81.45
70544;BME280;58097;48.364;-1.224;2022-12-18T02:47:43;100033.66;;;-2.72;81.30
70544;BME280;58097;48.364;-1.224;2022-12-18T02:55:44;100018.75;;;-2.81;81.80
70544;BME280;58097;48.364;-1.224;2022-12-18T03:04:08;100009.47;;;-2.75;81.53
70544;BME280;58097;48.364;-1.224;2022-12-18T03:06:40;100022.75;;;-2.71;80.99
70544;BME280;58097;48.364;-1.224;2022-12-18T03:09:10;100021.00;;;-2.72;81.26
70544;BME280;58097;48.364;-1.224;2022-12-18T03:11:40;100022.25;;;-2.79;81.57
70544;BME280;58097;48.364;-1.224;2022-12-18T03:14:26;100016.22;;;-2.84;81.94
70544;BME280;58097;48.364;-1.224;2022-12-18T03:16:59;100020.59;;;-2.82;81.89
70544;BME280;58097;48.364;-1.224;2022-12-18T03:19:28;100018.31;;;-2.72;81.29
70544;BME280;58097;48.364;-1.224;2022-12-18T03:21:56;100005.81;;;-2.74;81.38
70544;BME280;58097;48.364;-1.224;2022-12-18T03:24:24;100008.28;;;-2.70;81.18
70544;BME280;58097;48.364;-1.224;2022-12-18T03:26:56;100008.44;;;-2.73;81.59
70544;BME280;58097;48.364;-1.224;2022-12-18T03:29:26;100017.03;;;-2.65;81.33
70544;BME280;58097;48.364;-1.224;2022-12-18T03:32:00;100012.75;;;-2.69;81.48
70544;BME280;58097;48.364;-1.224;2022-12-18T03:34:34;100011.53;;;-2.81;82.25
70544;BME280;58097;48.364;-1.224;2022-12-18T03:37:02;100017.56;;;-2.75;81.89
70544;BME280;58097;48.364;-1.224;2022-12-18T03:39:28;100019.25;;;-2.73;81.73
70544;BME280;58097;48.364;-1.224;2022-12-18T03:46:58;100023.47;;;-2.67;81.92
70544;BME280;58097;48.364;-1.224;2022-12-18T03:52:13;100030.78;;;-2.69;82.01
70544;BME280;58097;48.364;-1.224;2022-12-18T03:54:43;100035.19;;;-2.67;81.52
70544;BME280;58097;48.364;-1.224;2022-12-18T03:57:16;100036.50;;;-2.57;81.50
70544;BME280;58097;48.364;-1.224;2022-12-18T03:59:45;100032.91;;;-2.57;81.76
70544;BME280;58097;48.364;-1.224;2022-12-18T04:02:12;100036.69;;;-2.61;81.93
70544;BME280;58097;48.364;-1.224;2022-12-18T04:04:40;100032.91;;;-2.57;81.53
70544;BME280;58097;48.364;-1.224;2022-12-18T04:07:07;100034.50;;;-2.53;81.39
70544;BME280;58097;48.364;-1.224;2022-12-18T04:09:33;100039.41;;;-2.61;81.84
70544;BME280;58097;48.364;-1.224;2022-12-18T04:11:59;100026.34;;;-2.70;82.47
70544;BME280;58097;48.364;-1.224;2022-12-18T04:14:24;100026.41;;;-2.72;82.53
70544;BME280;58097;48.364;-1.224;2022-12-18T04:16:50;100023.31;;;-2.64;81.95
70544;BME280;58097;48.364;-1.224;2022-12-18T04:19:15;100032.25;;;-2.62;81.98
70544;BME280;58097;48.364;-1.224;2022-12-18T04:21:40;100037.81;;;-2.65;82.32
70544;BME280;58097;48.364;-1.224;2022-12-18T04:24:06;100034.75;;;-2.58;82.27
70544;BME280;58097;48.364;-1.224;2022-12-18T04:26:31;100038.09;;;-2.53;81.98
70544;BME280;58097;48.364;-1.224;2022-12-18T04:28:57;100042.31;;;-2.47;81.71
70544;BME280;58097;48.364;-1.224;2022-12-18T04:31:22;100042.47;;;-2.50;81.85
70544;BME280;58097;48.364;-1.224;2022-12-18T04:33:48;100035.16;;;-2.48;81.79
70544;BME280;58097;48.364;-1.224;2022-12-18T04:36:13;100033.88;;;-2.58;82.28
70544;BME280;58097;48.364;-1.224;2022-12-18T04:38:38;100038.69;;;-2.65;82.64
70544;BME280;58097;48.364;-1.224;2022-12-18T04:41:04;100038.75;;;-2.66;82.62
70544;BME280;58097;48.364;-1.224;2022-12-18T04:43:29;100034.66;;;-2.56;82.43
70544;BME280;58097;48.364;-1.224;2022-12-18T04:46:02;100036.34;;;-2.54;82.26
70544;BME280;58097;48.364;-1.224;2022-12-18T04:48:28;100026.25;;;-2.50;81.81
70544;BME280;58097;48.364;-1.224;2022-12-18T04:50:53;100022.09;;;-2.57;82.30
70544;BME280;58097;48.364;-1.224;2022-12-18T04:53:18;100020.41;;;-2.60;82.58
70544;BME280;58097;48.364;-1.224;2022-12-18T04:55:44;100016.59;;;-2.56;82.15
70544;BME280;58097;48.364;-1.224;2022-12-18T04:58:09;100030.63;;;-2.47;82.11
70544;BME280;58097;48.364;-1.224;2022-12-18T05:00:35;100046.84;;;-2.47;82.06
70544;BME280;58097;48.364;-1.224;2022-12-18T05:03:01;100042.31;;;-2.47;81.97
70544;BME280;58097;48.364;-1.224;2022-12-18T05:05:27;100030.69;;;-2.49;82.06
70544;BME280;58097;48.364;-1.224;2022-12-18T05:07:52;100023.63;;;-2.52;82.52
70544;BME280;58097;48.364;-1.224;2022-12-18T05:10:18;100026.09;;;-2.47;82.47
70544;BME280;58097;48.364;-1.224;2022-12-18T05:12:43;100027.75;;;-2.44;82.48
70544;BME280;58097;48.364;-1.224;2022-12-18T05:15:27;100015.66;;;-2.37;82.04
70544;BME280;58097;48.364;-1.224;2022-12-18T05:17:53;100021.88;;;-2.35;82.18
70544;BME280;58097;48.364;-1.224;2022-12-18T05:20:18;100014.78;;;-2.38;82.69
70544;BME280;58097;48.364;-1.224;2022-12-18T05:22:44;100019.47;;;-2.41;82.97
70544;BME280;58097;48.364;-1.224;2022-12-18T05:25:09;100009.53;;;-2.41;83.03
70544;BME280;58097;48.364;-1.224;2022-12-18T05:27:35;99997.75;;;-2.40;83.07
70544;BME280;58097;48.364;-1.224;2022-12-18T05:30:00;99994.81;;;-2.35;82.98
70544;BME280;58097;48.364;-1.224;2022-12-18T05:32:26;99988.16;;;-2.28;82.68
70544;BME280;58097;48.364;-1.224;2022-12-18T05:34:51;99985.69;;;-2.15;82.97
70544;BME280;58097;48.364;-1.224;2022-12-18T05:37:16;99972.28;;;-2.19;83.09
70544;BME280;58097;48.364;-1.224;2022-12-18T05:39:43;99970.53;;;-2.20;82.64
70544;BME280;58097;48.364;-1.224;2022-12-18T05:42:08;99957.72;;;-2.16;82.65
70544;BME280;58097;48.364;-1.224;2022-12-18T05:44:33;99947.69;;;-2.14;82.44
70544;BME280;58097;48.364;-1.224;2022-12-18T05:46:59;99956.06;;;-2.19;82.63
70544;BME280;58097;48.364;-1.224;2022-12-18T05:49:24;99951.34;;;-2.15;82.60
70544;BME280;58097;48.364;-1.224;2022-12-18T05:51:49;99953.03;;;-2.12;82.71
70544;BME280;58097;48.364;-1.224;2022-12-18T05:54:15;99951.91;;;-2.08;82.61
70544;BME280;58097;48.364;-1.224;2022-12-18T05:56:40;99960.66;;;-2.03;82.49
70544;BME280;58097;48.364;-1.224;2022-12-18T05:59:05;99967.91;;;-2.04;82.71
70544;BME280;58097;48.364;-1.224;2022-12-18T06:01:31;99962.09;;;-1.96;82.38
70544;BME280;58097;48.364;-1.224;2022-12-18T06:03:56;99949.59;;;-1.99;82.65
70544;BME280;58097;48.364;-1.224;2022-12-18T06:06:26;99945.34;;;-2.04;83.20
70544;BME280;58097;48.364;-1.224;2022-12-18T06:08:52;99931.50;;;-1.98;82.97
70544;BME280;58097;48.364;-1.224;2022-12-18T06:11:23;99933.34;;;-1.99;83.58
70544;BME280;58097;48.364;-1.224;2022-12-18T06:13:50;99924.09;;;-1.95;83.59
70544;BME280;58097;48.364;-1.224;2022-12-18T06:16:15;99916.50;;;-1.88;83.98
70544;BME280;58097;48.364;-1.224;2022-12-18T06:18:41;99918.50;;;-1.92;84.27
70544;BME280;58097;48.364;-1.224;2022-12-18T06:21:06;99922.63;;;-1.84;83.85
70544;BME280;58097;48.364;-1.224;2022-12-18T06:23:32;99920.63;;;-1.81;83.80
70544;BME280;58097;48.364;-1.224;2022-12-18T06:25:57;99927.47;;;-1.74;83.80
70544;BME280;58097;48.364;-1.224;2022-12-18T06:28:23;99932.97;;;-1.75;84.10
70544;BME280;58097;48.364;-1.224;2022-12-18T06:30:48;99921.97;;;-1.72;84.54
70544;BME280;58097;48.364;-1.224;2022-12-18T06:33:15;99926.88;;;-1.63;84.46
70544;BME280;58097;48.364;-1.224;2022-12-18T06:35:41;99925.59;;;-1.56;84.25
70544;BME280;58097;48.364;-1.224;2022-12-18T06:38:07;99932.84;;;-1.57;84.15
70544;BME280;58097;48.364;-1.224;2022-12-18T06:40:32;99936.59;;;-1.59;84.37
70544;BME280;58097;48.364;-1.224;2022-12-18T06:42:59;99928.03;;;-1.51;84.16
70544;BME280;58097;48.364;-1.224;2022-12-18T06:45:24;99924.44;;;-1.52;84.50
70544;BME280;58097;48.364;-1.224;2022-12-18T06:47:50;99919.19;;;-1.55;85.09
70544;BME280;58097;48.364;-1.224;2022-12-18T06:50:15;99918.94;;;-1.50;85.01
70544;BME280;58097;48.364;-1.224;2022-12-18T06:52:41;99922.69;;;-1.53;85.36
70544;BME280;58097;48.364;-1.224;2022-12-18T06:55:08;99914.56;;;-1.53;85.67
70544;BME280;58097;48.364;-1.224;2022-12-18T06:57:33;99924.38;;;-1.50;85.66
70544;BME280;58097;48.364;-1.224;2022-12-18T06:59:59;99919.56;;;-1.45;85.69
70544;BME280;58097;48.364;-1.224;2022-12-18T07:02:24;99926.59;;;-1.41;85.34
70544;BME280;58097;48.364;-1.224;2022-12-18T07:04:50;99929.28;;;-1.41;85.83
70544;BME280;58097;48.364;-1.224;2022-12-18T07:07:15;99925.44;;;-1.37;85.73
70544;BME280;58097;48.364;-1.224;2022-12-18T07:09:41;99925.00;;;-1.30;85.70
70544;BME280;58097;48.364;-1.224;2022-12-18T07:12:06;99923.09;;;-1.28;85.76
70544;BME280;58097;48.364;-1.224;2022-12-18T07:14:33;99916.00;;;-1.30;86.23
70544;BME280;58097;48.364;-1.224;2022-12-18T07:16:58;99911.44;;;-1.30;86.42
70544;BME280;58097;48.364;-1.224;2022-12-18T07:19:24;99915.13;;;-1.31;86.92
70544;BME280;58097;48.364;-1.224;2022-12-18T07:21:50;99904.19;;;-1.29;87.09
70544;BME280;58097;48.364;-1.224;2022-12-18T07:24:15;99902.09;;;-1.24;86.63
70544;BME280;58097;48.364;-1.224;2022-12-18T07:26:41;99915.56;;;-1.22;87.38
70544;BME280;58097;48.364;-1.224;2022-12-18T07:29:06;99911.47;;;-1.14;86.93
70544;BME280;58097;48.364;-1.224;2022-12-18T07:31:31;99914.00;;;-1.11;87.06
70544;BME280;58097;48.364;-1.224;2022-12-18T07:33:57;99903.94;;;-1.09;87.41
70544;BME280;58097;48.364;-1.224;2022-12-18T07:36:22;99908.22;;;-1.05;87.42
70544;BME280;58097;48.364;-1.224;2022-12-18T07:38:48;99916.97;;;-1.00;87.09
70544;BME280;58097;48.364;-1.224;2022-12-18T07:41:14;99918.53;;;-0.96;87.01
70544;BME280;58097;48.364;-1.224;2022-12-18T07:43:40;99920.63;;;-1.01;88.62
70544;BME280;58097;48.364;-1.224;2022-12-18T07:46:07;99925.72;;;-0.95;87.74
70544;BME280;58097;48.364;-1.224;2022-12-18T07:48:32;99911.34;;;-0.97;88.52
70544;BME280;58097;48.364;-1.224;2022-12-18T07:51:03;99913.09;;;-0.96;88.43
70544;BME280;58097;48.364;-1.224;2022-12-18T07:53:29;99917.19;;;-0.88;87.75
70544;BME280;58097;48.364;-1.224;2022-12-18T07:56:00;99918.94;;;-0.87;88.68
70544;BME280;58097;48.364;-1.224;2022-12-18T07:58:25;99920.78;;;-0.88;89.01
70544;BME280;58097;48.364;-1.224;2022-12-18T08:00:51;99913.28;;;-0.83;88.55
70544;BME280;58097;48.364;-1.224;2022-12-18T08:03:18;99914.56;;;-0.74;88.36
70544;BME280;58097;48.364;-1.224;2022-12-18T08:05:43;99907.31;;;-0.74;88.77
70544;BME280;58097;48.364;-1.224;2022-12-18T08:08:08;99916.59;;;-0.78;89.65
70544;BME280;58097;48.364;-1.224;2022-12-18T08:10:34;99919.22;;;-0.76;89.57
70544;BME280;58097;48.364;-1.224;2022-12-18T08:12:59;99920.88;;;-0.74;90.10
70544;BME280;58097;48.364;-1.224;2022-12-18T08:15:24;99917.09;;;-0.71;89.67
70544;BME280;58097;48.364;-1.224;2022-12-18T08:17:50;99911.59;;;-0.70;89.84
70544;BME280;58097;48.364;-1.224;2022-12-18T08:20:15;99912.28;;;-0.66;89.88
70544;BME280;58097;48.364;-1.224;2022-12-18T08:22:42;99914.91;;;-0.65;90.20
70544;BME280;58097;48.364;-1.224;2022-12-18T08:25:08;99917.34;;;-0.60;90.56
70544;BME280;58097;48.364;-1.224;2022-12-18T08:27:33;99919.97;;;-0.58;90.61
70544;BME280;58097;48.364;-1.224;2022-12-18T08:29:59;99912.53;;;-0.55;91.25
70544;BME280;58097;48.364;-1.224;2022-12-18T08:32:25;99916.03;;;-0.53;91.46
70544;BME280;58097;48.364;-1.224;2022-12-18T08:34:51;99916.63;;;-0.48;91.05
70544;BME280;58097;48.364;-1.224;2022-12-18T08:37:16;99911.59;;;-0.40;90.81
70544;BME280;58097;48.364;-1.224;2022-12-18T08:39:42;99915.09;;;-0.38;90.96
70544;BME280;58097;48.364;-1.224;2022-12-18T08:42:07;99916.31;;;-0.27;89.79
70544;BME280;58097;48.364;-1.224;2022-12-18T08:44:51;99908.06;;;-0.26;90.47
70544;BME280;58097;48.364;-1.224;2022-12-18T08:47:16;99912.25;;;-0.20;90.06
70544;BME280;58097;48.364;-1.224;2022-12-18T08:49:41;99910.31;;;-0.18;90.40
70544;BME280;58097;48.364;-1.224;2022-12-18T08:52:07;99904.00;;;-0.19;91.02
70544;BME280;58097;48.364;-1.224;2022-12-18T08:54:32;99911.09;;;-0.16;90.92
70544;BME280;58097;48.364;-1.224;2022-12-18T08:56:57;99910.91;;;-0.13;91.00
70544;BME280;58097;48.364;-1.224;2022-12-18T08:59:23;99910.03;;;-0.14;91.40
70544;BME280;58097;48.364;-1.224;2022-12-18T09:01:49;99895.09;;;-0.07;90.90
70544;BME280;58097;48.364;-1.224;2022-12-18T09:04:14;99894.22;;;-0.07;91.40
70544;BME280;58097;48.364;-1.224;2022-12-18T09:06:39;99898.47;;;-0.03;91.37
70544;BME280;58097;48.364;-1.224;2022-12-18T09:09:05;99892.19;;;-0.04;91.52
70544;BME280;58097;48.364;-1.224;2022-12-18T09:11:32;99887.53;;;-0.02;91.69
70544;BME280;58097;48.364;-1.224;2022-12-18T09:13:58;99888.41;;;-0.01;91.53
70544;BME280;58097;48.364;-1.224;2022-12-18T09:16:25;99886.56;;;-0.01;91.88
70544;BME280;58097;48.364;-1.224;2022-12-18T09:18:51;99883.38;;;0.07;91.38
70544;BME280;58097;48.364;-1.224;2022-12-18T09:21:20;99879.88;;;0.05;91.75
70544;BME280;58097;48.364;-1.224;2022-12-18T09:23:50;99890.47;;;0.10;91.47
70544;BME280;58097;48.364;-1.224;2022-12-18T09:26:15;99891.72;;;0.18;90.80
70544;BME280;58097;48.364;-1.224;2022-12-18T09:28:41;99890.75;;;0.19;91.10
70544;BME280;58097;48.364;-1.224;2022-12-18T09:31:08;99888.22;;;0.16;91.36
70544;BME280;58097;48.364;-1.224;2022-12-18T09:33:35;99890.16;;;0.14;91.68
70544;BME280;58097;48.364;-1.224;2022-12-18T09:36:03;99888.03;;;0.19;91.32
70544;BME280;58097;48.364;-1.224;2022-12-18T09:38:29;99882.69;;;0.18;91.68
70544;BME280;58097;48.364;-1.224;2022-12-18T09:40:59;99884.34;;;0.20;91.80
70544;BME280;58097;48.364;-1.224;2022-12-18T09:43:43;99888.03;;;0.19;92.32
70544;BME280;58097;48.364;-1.224;2022-12-18T09:46:14;99882.41;;;0.22;92.29
70544;BME280;58097;48.364;-1.224;2022-12-18T09:48:42;99874.06;;;0.25;92.32
70544;BME280;58097;48.364;-1.224;2022-12-18T09:52:12;99866.66;;;0.27;92.21
70544;BME280;58097;48.364;-1.224;2022-12-18T09:54:30;99867.19;;;0.34;91.16
70544;BME280;58097;48.364;-1.224;2022-12-18T09:56:58;99879.31;;;0.43;91.04
70544;BME280;58097;48.364;-1.224;2022-12-18T09:59:36;99882.13;;;0.41;91.72
70544;BME280;58097;48.364;-1.224;2022-12-18T10:02:17;99876.78;;;0.40;91.93
70544;BME280;58097;48.364;-1.224;2022-12-18T10:04:43;99884.16;;;0.38;92.43
70544;BME280;58097;48.364;-1.224;2022-12-18T10:07:19;99886.00;;;0.37;92.62
70544;BME280;58097;48.364;-1.224;2022-12-18T10:21:33;99896.28;;;0.60;90.88
70544;BME280;58097;48.364;-1.224;2022-12-18T10:26:52;99891.13;;;0.56;91.45
70544;BME280;58097;48.364;-1.224;2022-12-18T10:29:18;99888.13;;;0.60;91.16
70544;BME280;58097;48.364;-1.224;2022-12-18T10:31:44;99880.94;;;0.59;91.61
70544;BME280;58097;48.364;-1.224;2022-12-18T10:34:13;99882.50;;;0.64;91.13
70544;BME280;58097;48.364;-1.224;2022-12-18T10:36:38;99880.44;;;0.67;91.05
70544;BME280;58097;48.364;-1.224;2022-12-18T10:39:22;99884.03;;;0.68;91.23
70544;BME280;58097;48.364;-1.224;2022-12-18T10:41:48;99875.88;;;0.68;91.82
70544;BME280;58097;48.364;-1.224;2022-12-18T10:44:22;99861.19;;;0.70;91.62
70544;BME280;58097;48.364;-1.224;2022-12-18T10:47:02;99844.13;;;0.68;91.84
70544;BME280;58097;48.364;-1.224;2022-12-18T10:49:31;99837.59;;;0.71;92.04
70544;BME280;58097;48.364;-1.224;2022-12-18T10:52:18;99830.31;;;0.71;92.35
70544;BME280;58097;48.364;-1.224;2022-12-18T10:54:55;99823.22;;;0.69;92.62
70544;BME280;58097;48.364;-1.224;2022-12-18T10:59:53;99812.25;;;0.70;92.86
70544;BME280;58097;48.364;-1.224;2022-12-18T11:02:40;99819.94;;;0.64;93.48
70544;BME280;58097;48.364;-1.224;2022-12-18T11:05:34;99819.22;;;0.74;92.95
70544;BME280;58097;48.364;-1.224;2022-12-18T11:08:02;99807.78;;;0.69;93.60
70544;BME280;58097;48.364;-1.224;2022-12-18T11:10:32;99807.47;;;0.74;93.95
70544;BME280;58097;48.364;-1.224;2022-12-18T11:13:18;99804.44;;;0.78;93.64
70544;BME280;58097;48.364;-1.224;2022-12-18T11:15:45;99807.72;;;0.83;93.26
70544;BME280;58097;48.364;-1.224;2022-12-18T11:18:24;99800.94;;;0.76;94.01
70544;BME280;58097;48.364;-1.224;2022-12-18T11:20:58;99803.16;;;0.84;93.43
70544;BME280;58097;48.364;-1.224;2022-12-18T11:23:25;99811.69;;;0.92;92.84
70544;BME280;58097;48.364;-1.224;2022-12-18T11:25:53;99810.06;;;0.89;92.91
70544;BME280;58097;48.364;-1.224;2022-12-18T11:36:45;99795.59;;;1.02;92.67
70544;BME280;58097;48.364;-1.224;2022-12-18T11:39:27;99793.75;;;1.02;93.16
70544;BME280;58097;48.364;-1.224;2022-12-18T11:42:02;99795.41;;;1.05;92.42
70544;BME280;58097;48.364;-1.224;2022-12-18T11:49:55;99777.56;;;1.13;92.61
70544;BME280;58097;48.364;-1.224;2022-12-18T11:52:35;99770.84;;;1.19;92.60
70544;BME280;58097;48.364;-1.224;2022-12-18T11:55:14;99764.09;;;1.24;92.71
70544;BME280;58097;48.364;-1.224;2022-12-18T11:58:51;99758.44;;;1.28;92.62
70544;BME280;58097;48.364;-1.224;2022-12-18T12:01:01;99745.50;;;1.31;92.67
70544;BME280;58097;48.364;-1.224;2022-12-18T12:03:41;99745.81;;;1.39;93.06
70544;BME280;58097;48.364;-1.224;2022-12-18T12:09:10;99742.59;;;1.47;93.25
70544;BME280;58097;48.364;-1.224;2022-12-18T12:14:47;99745.41;;;1.45;94.43
70544;BME280;58097;48.364;-1.224;2022-12-18T12:17:42;99742.25;;;1.51;94.05
70544;BME280;58097;48.364;-1.224;2022-12-18T12:20:22;99740.28;;;1.53;93.86
70544;BME280;58097;48.364;-1.224;2022-12-18T12:23:22;99732.78;;;1.57;93.55
70544;BME280;58097;48.364;-1.224;2022-12-18T12:25:54;99732.13;;;1.53;93.86
70544;BME280;58097;48.364;-1.224;2022-12-18T12:28:55;99720.91;;;1.45;94.23
70544;BME280;58097;48.364;-1.224;2022-12-18T12:39:58;99697.25;;;1.59;93.23
70544;BME280;58097;48.364;-1.224;2022-12-18T12:42:34;99702.16;;;1.53;93.57
70544;BME280;58097;48.364;-1.224;2022-12-18T12:45:37;99701.06;;;1.56;93.57
70544;BME280;58097;48.364;-1.224;2022-12-18T12:48:09;99700.19;;;1.55;93.74
70544;BME280;58097;48.364;-1.224;2022-12-18T12:50:37;99704.44;;;1.60;93.77
70544;BME280;58097;48.364;-1.224;2022-12-18T12:53:07;99695.28;;;1.61;93.93
70544;BME280;58097;48.364;-1.224;2022-12-18T12:55:35;99691.56;;;1.62;94.09
70544;BME280;58097;48.364;-1.224;2022-12-18T12:58:08;99702.03;;;1.68;93.48
70544;BME280;58097;48.364;-1.224;2022-12-18T13:00:49;99691.78;;;1.71;93.74
70544;BME280;58097;48.364;-1.224;2022-12-18T13:03:42;99682.72;;;1.71;93.63
70544;BME280;58097;48.364;-1.224;2022-12-18T13:06:16;99673.47;;;1.73;94.03
70544;BME280;58097;48.364;-1.224;2022-12-18T13:08:55;99674.91;;;1.79;93.96
70544;BME280;58097;48.364;-1.224;2022-12-18T13:11:30;99667.38;;;1.82;94.21
70544;BME280;58097;48.364;-1.224;2022-12-18T13:14:36;99668.88;;;1.86;94.34
70544;BME280;58097;48.364;-1.224;2022-12-18T13:17:15;99660.25;;;1.93;94.34
70544;BME280;58097;48.364;-1.224;2022-12-18T13:19:41;99659.25;;;1.94;94.46
70544;BME280;58097;48.364;-1.224;2022-12-18T13:22:21;99661.53;;;2.00;94.38
70544;BME280;58097;48.364;-1.224;2022-12-18T13:24:47;99652.25;;;2.02;94.50
70544;BME280;58097;48.364;-1.224;2022-12-18T13:38:24;99645.78;;;2.16;94.05
70544;BME280;58097;48.364;-1.224;2022-12-18T13:41:23;99650.50;;;2.14;94.09
70544;BME280;58097;48.364;-1.224;2022-12-18T13:43:54;99653.09;;;2.15;93.86
70544;BME280;58097;48.364;-1.224;2022-12-18T13:46:30;99655.94;;;2.14;94.46
70544;BME280;58097;48.364;-1.224;2022-12-18T13:51:40;99651.88;;;2.20;93.98
70544;BME280;58097;48.364;-1.224;2022-12-18T13:54:29;99648.91;;;2.23;93.85
70544;BME280;58097;48.364;-1.224;2022-12-18T13:56:55;99649.56;;;2.26;93.73
70544;BME280;58097;48.364;-1.224;2022-12-18T13:59:23;99640.28;;;2.29;93.75
70544;BME280;58097;48.364;-1.224;2022-12-18T14:01:55;99632.09;;;2.29;94.06
70544;BME280;58097;48.364;-1.224;2022-12-18T14:04:22;99630.25;;;2.29;94.08
70544;BME280;58097;48.364;-1.224;2022-12-18T14:06:51;99628.06;;;2.34;93.71
70544;BME280;58097;48.364;-1.224;2022-12-18T14:09:22;99624.59;;;2.32;94.11
70544;BME280;58097;48.364;-1.224;2022-12-18T14:11:49;99613.31;;;2.37;94.24
70544;BME280;58097;48.364;-1.224;2022-12-18T14:14:19;99611.59;;;2.36;95.10
70544;BME280;58097;48.364;-1.224;2022-12-18T14:16:46;99619.41;;;2.40;94.79
70544;BME280;58097;48.364;-1.224;2022-12-18T14:19:14;99616.31;;;2.45;94.77
70544;BME280;58097;48.364;-1.224;2022-12-18T14:21:46;99610.63;;;2.48;95.05
70544;BME280;58097;48.364;-1.224;2022-12-18T14:24:15;99608.41;;;2.53;95.07
70544;BME280;58097;48.364;-1.224;2022-12-18T14:26:41;99616.47;;;2.55;95.30
70544;BME280;58097;48.364;-1.224;2022-12-18T14:29:26;99605.44;;;2.56;95.62
70544;BME280;58097;48.364;-1.224;2022-12-18T14:32:12;99598.78;;;2.60;95.72
70544;BME280;58097;48.364;-1.224;2022-12-18T14:34:41;99597.56;;;2.64;96.01
70544;BME280;58097;48.364;-1.224;2022-12-18T14:37:10;99612.81;;;2.67;96.12